sensor_id;sensor_type;location;lat;lon;timestamp;pressure;altitude;pressure_sealevel;temperature;humidity
28626;BME280;18905;42.668;23.364;2022-10-16T00:01:06;95726.72;;;11.13;100.00
28626;BME280;18905;42.668;23.364;2022-10-16T00:03:32;95730.16;;;11.05;100.00
28626;BME280;18905;42.668;23.364;2022-10-16T00:05:59;95739.88;;;11.06;100.00
28626;BME280;18905;42.668;23.364;2022-10-16T00:08:25;95739.88;;;11.06;100.00
28626;BME280;18905;42.668;23.364;2022-10-16T00:10:51;95737.28;;;11.01;100.00
28626;BME280;18905;42.668;23.364;2022-10-16T00:13:16;95722.88;;;10.92;100.00
28626;BME280;18905;42.668;23.364;2022-10-16T00:15:43;95741.16;;;10.95;100.00
28626;BME280;18905;42.668;23.364;2022-10-16T00:18:09;95724.09;;;10.86;100.00
28626;BME280;18905;42.668;23.364;2022-10-16T00:20:35;95739.22;;;10.87;100.00
28626;BME280;18905;42.668;23.364;2022-10-16T00:23:03;95741.09;;;10.86;100.00
28626;BME280;18905;42.668;23.364;2022-10-16T00:25:28;95739.91;;;10.79;100.00
28626;BME280;18905;42.668;23.364;2022-10-16T00:27:54;95746.44;;;10.78;100.00
28626;BME280;18905;42.668;23.364;2022-10-16T00:30:20;95744.25;;;10.66;100.00
28626;BME280;18905;42.668;23.364;2022-10-16T00:32:45;95713.66;;;10.44;100.00
28626;BME280;18905;42.668;23.364;2022-10-16T00:35:10;95762.03;;;10.67;100.00
28626;BME280;18905;42.668;23.364;2022-10-16T00:37:36;95764.56;;;10.64;100.00
28626;BME280;18905;42.668;23.364;2022-10-16T00:40:01;95761.97;;;10.59;100.00
28626;BME280;18905;42.668;23.364;2022-10-16T00:42:27;95762.56;;;10.56;100.00
28626;BME280;18905;42.668;23.364;2022-10-16T00:44:54;95748.53;;;10.54;100.00
28626;BME280;18905;42.668;23.364;2022-10-16T00:49:54;95750.44;;;10.53;100.00
28626;BME280;18905;42.668;23.364;2022-10-16T00:52:21;95751.34;;;10.49;100.00
28626;BME280;18905;42.668;23.364;2022-10-16T00:54:47;95751.84;;;10.51;100.00
28626;BME280;18905;42.668;23.364;2022-10-16T00:57:15;95751.84;;;10.51;100.00
28626;BME280;18905;42.668;23.364;2022-10-16T00:59:41;95740.34;;;10.45;100.00
28626;BME280;18905;42.668;23.364;2022-10-16T01:02:11;95762.94;;;10.49;100.00
28626;BME280;18905;42.668;23.364;2022-10-16T01:05:12;95766.53;;;10.45;100.00
28626;BME280;18905;42.668;23.364;2022-10-16T01:20:59;95760.72;;;10.11;100.00
28626;BME280;18905;42.668;23.364;2022-10-16T01:26:35;95757.59;;;10.04;100.00
28626;BME280;18905;42.668;23.364;2022-10-16T01:31:36;95750.59;;;10.03;100.00
28626;BME280;18905;42.668;23.364;2022-10-16T01:34:16;95759.50;;;10.03;100.00
28626;BME280;18905;42.668;23.364;2022-10-16T01:36:51;95737.81;;;9.95;100.00
28626;BME280;18905;42.668;23.364;2022-10-16T01:39:21;95738.41;;;9.92;100.00
28626;BME280;18905;42.668;23.364;2022-10-16T01:44:33;95754.38;;;9.88;100.00
28626;BME280;18905;42.668;23.364;2022-10-16T01:47:02;95757.94;;;9.84;100.00
28626;BME280;18905;42.668;23.364;2022-10-16T01:49:31;95744.75;;;9.69;100.00
28626;BME280;18905;42.668;23.364;2022-10-16T01:51:59;95758.13;;;9.74;100.00
28626;BME280;18905;42.668;23.364;2022-10-16T01:54:28;95771.53;;;9.79;100.00
28626;BME280;18905;42.668;23.364;2022-10-16T01:56:56;95767.16;;;9.83;100.00
28626;BME280;18905;42.668;23.364;2022-10-16T01:59:25;95761.88;;;9.59;100.00
28626;BME280;18905;42.668;23.364;2022-10-16T02:01:56;95770.63;;;9.19;100.00
28626;BME280;18905;42.668;23.364;2022-10-16T02:04:29;95774.00;;;8.69;100.00
28626;BME280;18905;42.668;23.364;2022-10-16T02:06:56;95766.09;;;8.96;100.00
28626;BME280;18905;42.668;23.364;2022-10-16T02:09:22;95771.53;;;8.73;100.00
28626;BME280;18905;42.668;23.364;2022-10-16T02:11:48;95781.78;;;8.71;100.00
28626;BME280;18905;42.668;23.364;2022-10-16T02:14:16;95776.25;;;8.39;100.00
28626;BME280;18905;42.668;23.364;2022-10-16T02:16:46;95786.13;;;8.20;100.00
28626;BME280;18905;42.668;23.364;2022-10-16T02:19:15;95784.69;;;8.04;100.00
28626;BME280;18905;42.668;23.364;2022-10-16T02:26:58;95785.19;;;8.06;100.00
28626;BME280;18905;42.668;23.364;2022-10-16T02:29:26;95774.44;;;7.82;100.00
28626;BME280;18905;42.668;23.364;2022-10-16T02:32:10;95795.41;;;8.09;100.00
28626;BME280;18905;42.668;23.364;2022-10-16T02:34:39;95770.44;;;8.03;100.00
28626;BME280;18905;42.668;23.364;2022-10-16T02:37:06;95794.75;;;8.22;100.00
28626;BME280;18905;42.668;23.364;2022-10-16T02:39:33;95780.06;;;8.09;100.00
28626;BME280;18905;42.668;23.364;2022-10-16T02:41:59;95774.50;;;8.29;100.00
28626;BME280;18905;42.668;23.364;2022-10-16T02:44:25;95783.56;;;8.10;100.00
28626;BME280;18905;42.668;23.364;2022-10-16T02:46:50;95808.84;;;8.37;100.00
28626;BME280;18905;42.668;23.364;2022-10-16T02:49:15;95797.44;;;8.22;100.00
28626;BME280;18905;42.668;23.364;2022-10-16T02:51:41;95794.03;;;8.11;100.00
28626;BME280;18905;42.668;23.364;2022-10-16T02:54:06;95804.56;;;8.08;100.00
28626;BME280;18905;42.668;23.364;2022-10-16T02:56:32;95787.38;;;8.04;100.00
28626;BME280;18905;42.668;23.364;2022-10-16T02:58:57;95802.38;;;8.10;100.00
28626;BME280;18905;42.668;23.364;2022-10-16T03:01:23;95807.38;;;7.93;100.00
28626;BME280;18905;42.668;23.364;2022-10-16T03:03:49;95784.81;;;7.89;100.00
28626;BME280;18905;42.668;23.364;2022-10-16T03:06:14;95781.63;;;7.87;100.00
28626;BME280;18905;42.668;23.364;2022-10-16T03:08:40;95815.28;;;8.13;100.00
28626;BME280;18905;42.668;23.364;2022-10-16T03:11:05;95816.28;;;8.22;100.00
28626;BME280;18905;42.668;23.364;2022-10-16T03:13:31;95810.41;;;8.15;100.00
28626;BME280;18905;42.668;23.364;2022-10-16T03:15:56;95813.31;;;8.23;100.00
28626;BME280;18905;42.668;23.364;2022-10-16T03:18:22;95826.97;;;8.50;100.00
28626;BME280;18905;42.668;23.364;2022-10-16T03:20:47;95818.56;;;8.57;100.00
28626;BME280;18905;42.668;23.364;2022-10-16T03:23:12;95810.84;;;8.50;100.00
28626;BME280;18905;42.668;23.364;2022-10-16T03:25:38;95827.44;;;8.81;100.00
28626;BME280;18905;42.668;23.364;2022-10-16T03:28:04;95826.53;;;8.67;100.00
28626;BME280;18905;42.668;23.364;2022-10-16T03:30:29;95814.00;;;8.57;100.00
28626;BME280;18905;42.668;23.364;2022-10-16T03:32:55;95833.34;;;8.83;100.00
28626;BME280;18905;42.668;23.364;2022-10-16T03:35:21;95823.59;;;8.87;100.00
28626;BME280;18905;42.668;23.364;2022-10-16T03:37:47;95835.25;;;9.01;100.00
28626;BME280;18905;42.668;23.364;2022-10-16T03:40:13;95832.00;;;9.04;100.00
28626;BME280;18905;42.668;23.364;2022-10-16T03:42:38;95833.31;;;9.06;100.00
28626;BME280;18905;42.668;23.364;2022-10-16T03:45:04;95832.22;;;9.07;100.00
28626;BME280;18905;42.668;23.364;2022-10-16T03:47:30;95817.34;;;9.10;100.00
28626;BME280;18905;42.668;23.364;2022-10-16T03:49:58;95809.56;;;9.08;100.00
28626;BME280;18905;42.668;23.364;2022-10-16T03:52:23;95807.38;;;8.92;100.00
28626;BME280;18905;42.668;23.364;2022-10-16T03:54:49;95802.97;;;8.77;100.00
28626;BME280;18905;42.668;23.364;2022-10-16T03:57:14;95820.75;;;8.97;100.00
28626;BME280;18905;42.668;23.364;2022-10-16T03:59:40;95803.16;;;8.86;100.00
28626;BME280;18905;42.668;23.364;2022-10-16T04:02:05;95821.28;;;8.99;100.00
28626;BME280;18905;42.668;23.364;2022-10-16T04:04:30;95819.66;;;8.98;100.00
28626;BME280;18905;42.668;23.364;2022-10-16T04:06:56;95819.16;;;8.96;100.00
28626;BME280;18905;42.668;23.364;2022-10-16T04:09:21;95817.28;;;8.96;100.00
28626;BME280;18905;42.668;23.364;2022-10-16T04:11:47;95828.00;;;9.01;100.00
28626;BME280;18905;42.668;23.364;2022-10-16T04:14:12;95828.78;;;9.02;100.00
28626;BME280;18905;42.668;23.364;2022-10-16T04:16:38;95828.50;;;9.03;100.00
28626;BME280;18905;42.668;23.364;2022-10-16T04:19:03;95804.88;;;8.95;100.00
28626;BME280;18905;42.668;23.364;2022-10-16T04:21:28;95830.38;;;9.03;100.00
28626;BME280;18905;42.668;23.364;2022-10-16T04:23:54;95832.06;;;8.99;100.00
28626;BME280;18905;42.668;23.364;2022-10-16T04:26:20;95833.44;;;8.96;100.00
28626;BME280;18905;42.668;23.364;2022-10-16T04:28:45;95839.19;;;8.90;100.00
28626;BME280;18905;42.668;23.364;2022-10-16T04:31:11;95830.56;;;8.88;100.00
28626;BME280;18905;42.668;23.364;2022-10-16T04:33:36;95822.63;;;8.78;100.00
28626;BME280;18905;42.668;23.364;2022-10-16T04:36:03;95810.41;;;8.67;100.00
28626;BME280;18905;42.668;23.364;2022-10-16T04:38:29;95837.81;;;8.69;100.00
28626;BME280;18905;42.668;23.364;2022-10-16T04:40:54;95844.78;;;8.70;100.00
28626;BME280;18905;42.668;23.364;2022-10-16T04:43:21;95848.25;;;8.75;100.00
28626;BME280;18905;42.668;23.364;2022-10-16T04:45:46;95840.44;;;8.74;100.00
28626;BME280;18905;42.668;23.364;2022-10-16T04:48:12;95843.13;;;8.74;100.00
28626;BME280;18905;42.668;23.364;2022-10-16T04:50:37;95857.06;;;8.81;100.00
28626;BME280;18905;42.668;23.364;2022-10-16T04:53:03;95853.84;;;8.79;100.00
28626;BME280;18905;42.668;23.364;2022-10-16T04:55:28;95835.69;;;8.66;100.00
28626;BME280;18905;42.668;23.364;2022-10-16T04:57:53;95853.09;;;8.73;100.00
28626;BME280;18905;42.668;23.364;2022-10-16T05:00:19;95829.00;;;8.63;100.00
28626;BME280;18905;42.668;23.364;2022-10-16T05:02:44;95866.69;;;8.87;100.00
28626;BME280;18905;42.668;23.364;2022-10-16T05:05:10;95873.66;;;8.88;100.00
28626;BME280;18905;42.668;23.364;2022-10-16T05:07:35;95862.97;;;8.83;100.00
28626;BME280;18905;42.668;23.364;2022-10-16T05:10:00;95869.81;;;8.94;100.00
28626;BME280;18905;42.668;23.364;2022-10-16T05:12:26;95872.16;;;9.00;100.00
28626;BME280;18905;42.668;23.364;2022-10-16T05:14:51;95864.22;;;8.90;100.00
28626;BME280;18905;42.668;23.364;2022-10-16T05:17:17;95879.63;;;8.85;100.00
28626;BME280;18905;42.668;23.364;2022-10-16T05:19:42;95881.31;;;8.81;100.00
28626;BME280;18905;42.668;23.364;2022-10-16T05:22:08;95877.69;;;8.67;100.00
28626;BME280;18905;42.668;23.364;2022-10-16T05:24:33;95887.16;;;8.64;100.00
28626;BME280;18905;42.668;23.364;2022-10-16T05:26:59;95876.38;;;8.64;100.00
28626;BME280;18905;42.668;23.364;2022-10-16T05:29:24;95881.88;;;8.78;100.00
28626;BME280;18905;42.668;23.364;2022-10-16T05:31:51;95878.50;;;8.91;100.00
28626;BME280;18905;42.668;23.364;2022-10-16T05:34:17;95885.69;;;8.95;100.00
28626;BME280;18905;42.668;23.364;2022-10-16T05:36:42;95874.91;;;8.95;100.00
28626;BME280;18905;42.668;23.364;2022-10-16T05:39:10;95888.31;;;9.00;100.00
28626;BME280;18905;42.668;23.364;2022-10-16T05:41:35;95872.97;;;9.01;100.00
28626;BME280;18905;42.668;23.364;2022-10-16T05:44:04;95870.22;;;9.06;100.00
28626;BME280;18905;42.668;23.364;2022-10-16T05:46:29;95891.00;;;9.24;100.00
28626;BME280;18905;42.668;23.364;2022-10-16T05:48:55;95891.53;;;9.44;100.00
28626;BME280;18905;42.668;23.364;2022-10-16T05:51:20;95876.50;;;9.20;100.00
28626;BME280;18905;42.668;23.364;2022-10-16T05:53:45;95884.78;;;10.16;100.00
28626;BME280;18905;42.668;23.364;2022-10-16T05:56:11;95901.34;;;12.21;100.00
28626;BME280;18905;42.668;23.364;2022-10-16T05:58:39;95905.84;;;14.75;100.00
28626;BME280;18905;42.668;23.364;2022-10-16T06:01:11;95898.69;;;17.01;79.76
28626;BME280;18905;42.668;23.364;2022-10-16T06:03:37;95891.38;;;18.25;67.15
28626;BME280;18905;42.668;23.364;2022-10-16T06:06:24;95914.50;;;18.27;61.55
28626;BME280;18905;42.668;23.364;2022-10-16T06:08:51;95917.41;;;18.74;61.34
28626;BME280;18905;42.668;23.364;2022-10-16T06:11:23;95915.63;;;18.38;60.51
28626;BME280;18905;42.668;23.364;2022-10-16T06:13:50;95914.94;;;18.96;59.59
28626;BME280;18905;42.668;23.364;2022-10-16T06:16:16;95923.81;;;19.36;57.51
28626;BME280;18905;42.668;23.364;2022-10-16T06:18:41;95922.88;;;20.44;55.02
28626;BME280;18905;42.668;23.364;2022-10-16T06:21:09;95916.50;;;20.78;51.65
28626;BME280;18905;42.668;23.364;2022-10-16T06:23:35;95930.97;;;20.95;49.59
28626;BME280;18905;42.668;23.364;2022-10-16T06:26:07;95934.19;;;19.15;54.32
28626;BME280;18905;42.668;23.364;2022-10-16T06:28:33;95924.13;;;18.09;59.91
28626;BME280;18905;42.668;23.364;2022-10-16T06:31:00;95936.88;;;17.57;64.38
28626;BME280;18905;42.668;23.364;2022-10-16T06:33:25;95934.34;;;17.28;65.20
28626;BME280;18905;42.668;23.364;2022-10-16T06:35:51;95932.88;;;17.31;64.93
28626;BME280;18905;42.668;23.364;2022-10-16T06:38:16;95923.19;;;17.33;65.15
28626;BME280;18905;42.668;23.364;2022-10-16T06:40:41;95928.94;;;17.52;64.32
28626;BME280;18905;42.668;23.364;2022-10-16T06:43:07;95940.88;;;17.60;64.44
28626;BME280;18905;42.668;23.364;2022-10-16T06:45:32;95946.59;;;15.96;72.15
28626;BME280;18905;42.668;23.364;2022-10-16T06:47:58;95949.53;;;16.11;77.04
28626;BME280;18905;42.668;23.364;2022-10-16T06:50:23;95945.81;;;15.95;78.60
28626;BME280;18905;42.668;23.364;2022-10-16T06:52:48;95960.25;;;16.37;72.14
28626;BME280;18905;42.668;23.364;2022-10-16T06:55:14;95956.44;;;16.91;70.44
28626;BME280;18905;42.668;23.364;2022-10-16T06:57:40;95940.56;;;15.90;76.58
28626;BME280;18905;42.668;23.364;2022-10-16T07:00:06;95937.75;;;16.81;71.70
28626;BME280;18905;42.668;23.364;2022-10-16T07:02:31;95937.91;;;16.64;72.25
28626;BME280;18905;42.668;23.364;2022-10-16T07:04:57;95965.34;;;16.67;70.69
28626;BME280;18905;42.668;23.364;2022-10-16T07:07:22;95946.06;;;16.84;70.96
28626;BME280;18905;42.668;23.364;2022-10-16T07:09:50;95947.41;;;17.11;68.78
28626;BME280;18905;42.668;23.364;2022-10-16T07:12:15;95949.97;;;17.40;67.89
28626;BME280;18905;42.668;23.364;2022-10-16T07:14:40;95969.81;;;17.28;65.97
28626;BME280;18905;42.668;23.364;2022-10-16T07:17:06;95954.06;;;17.01;70.66
28626;BME280;18905;42.668;23.364;2022-10-16T07:19:31;95965.91;;;17.05;70.09
28626;BME280;18905;42.668;23.364;2022-10-16T07:21:57;95976.00;;;16.93;71.86
28626;BME280;18905;42.668;23.364;2022-10-16T07:24:22;95975.50;;;15.88;76.65
28626;BME280;18905;42.668;23.364;2022-10-16T07:26:48;95978.25;;;16.58;75.49
28626;BME280;18905;42.668;23.364;2022-10-16T07:29:16;95982.56;;;16.10;79.42
28626;BME280;18905;42.668;23.364;2022-10-16T07:31:42;95973.44;;;17.77;79.73
28626;BME280;18905;42.668;23.364;2022-10-16T07:34:08;95978.16;;;19.34;82.59
28626;BME280;18905;42.668;23.364;2022-10-16T07:36:33;95979.41;;;19.99;68.21
28626;BME280;18905;42.668;23.364;2022-10-16T07:38:59;95972.66;;;21.19;63.05
28626;BME280;18905;42.668;23.364;2022-10-16T07:41:24;95975.41;;;21.42;51.00
28626;BME280;18905;42.668;23.364;2022-10-16T07:43:51;95977.09;;;19.85;54.17
28626;BME280;18905;42.668;23.364;2022-10-16T07:46:19;95976.97;;;18.92;57.92
28626;BME280;18905;42.668;23.364;2022-10-16T07:48:45;95981.41;;;18.69;59.79
28626;BME280;18905;42.668;23.364;2022-10-16T07:51:14;95984.81;;;18.66;59.82
28626;BME280;18905;42.668;23.364;2022-10-16T07:53:40;95963.88;;;18.86;60.11
28626;BME280;18905;42.668;23.364;2022-10-16T07:56:07;95976.69;;;18.42;61.82
28626;BME280;18905;42.668;23.364;2022-10-16T07:58:34;95979.03;;;18.56;62.71
28626;BME280;18905;42.668;23.364;2022-10-16T08:01:06;95982.13;;;19.09;60.19
28626;BME280;18905;42.668;23.364;2022-10-16T08:03:32;95980.63;;;17.37;68.41
28626;BME280;18905;42.668;23.364;2022-10-16T08:05:59;95975.78;;;16.98;71.19
28626;BME280;18905;42.668;23.364;2022-10-16T08:08:25;95979.91;;;17.96;67.19
28626;BME280;18905;42.668;23.364;2022-10-16T08:10:50;95981.00;;;18.43;62.00
28626;BME280;18905;42.668;23.364;2022-10-16T08:13:16;95985.34;;;18.32;63.18
28626;BME280;18905;42.668;23.364;2022-10-16T08:15:45;95969.97;;;18.28;62.24
28626;BME280;18905;42.668;23.364;2022-10-16T08:18:11;95985.97;;;17.66;65.49
28626;BME280;18905;42.668;23.364;2022-10-16T08:20:37;95970.72;;;17.89;65.30
28626;BME280;18905;42.668;23.364;2022-10-16T08:23:03;95978.91;;;17.77;66.37
28626;BME280;18905;42.668;23.364;2022-10-16T08:25:29;95977.66;;;17.86;63.19
28626;BME280;18905;42.668;23.364;2022-10-16T08:27:54;95973.31;;;17.97;63.67
28626;BME280;18905;42.668;23.364;2022-10-16T08:30:22;95967.88;;;17.73;65.55
28626;BME280;18905;42.668;23.364;2022-10-16T08:32:48;95966.50;;;17.23;68.60
28626;BME280;18905;42.668;23.364;2022-10-16T08:35:14;95972.25;;;16.97;71.31
28626;BME280;18905;42.668;23.364;2022-10-16T08:37:40;95955.63;;;17.35;69.11
28626;BME280;18905;42.668;23.364;2022-10-16T08:40:10;95976.28;;;17.68;64.88
28626;BME280;18905;42.668;23.364;2022-10-16T08:50:24;95980.94;;;18.04;61.58
28626;BME280;18905;42.668;23.364;2022-10-16T08:52:50;95978.66;;;18.69;56.30
28626;BME280;18905;42.668;23.364;2022-10-16T08:55:46;95968.88;;;18.68;54.54
28626;BME280;18905;42.668;23.364;2022-10-16T08:58:17;95982.00;;;18.63;53.11
28626;BME280;18905;42.668;23.364;2022-10-16T09:00:46;95979.16;;;19.14;52.83
28626;BME280;18905;42.668;23.364;2022-10-16T09:17:18;95986.22;;;20.20;47.53
28626;BME280;18905;42.668;23.364;2022-10-16T09:19:53;95983.47;;;19.74;48.32
28626;BME280;18905;42.668;23.364;2022-10-16T09:22:26;95970.13;;;19.57;49.44
28626;BME280;18905;42.668;23.364;2022-10-16T09:24:54;95974.00;;;20.02;47.22
28626;BME280;18905;42.668;23.364;2022-10-16T09:27:20;95973.78;;;20.26;46.75
28626;BME280;18905;42.668;23.364;2022-10-16T09:29:45;95973.94;;;19.52;48.28
28626;BME280;18905;42.668;23.364;2022-10-16T09:32:16;95967.28;;;19.38;48.55
28626;BME280;18905;42.668;23.364;2022-10-16T09:34:52;95976.72;;;18.97;48.81
28626;BME280;18905;42.668;23.364;2022-10-16T09:37:20;95968.16;;;18.44;49.89
28626;BME280;18905;42.668;23.364;2022-10-16T09:39:54;95970.22;;;17.87;52.28
28626;BME280;18905;42.668;23.364;2022-10-16T09:42:31;95971.84;;;18.91;51.23
28626;BME280;18905;42.668;23.364;2022-10-16T09:44:57;95955.88;;;19.82;48.54
28626;BME280;18905;42.668;23.364;2022-10-16T09:47:26;95972.19;;;20.41;47.23
28626;BME280;18905;42.668;23.364;2022-10-16T09:49:58;95966.25;;;20.39;45.57
28626;BME280;18905;42.668;23.364;2022-10-16T09:52:27;95954.41;;;19.85;46.78
28626;BME280;18905;42.668;23.364;2022-10-16T09:54:55;95956.00;;;19.70;46.84
28626;BME280;18905;42.668;23.364;2022-10-16T09:57:21;95949.72;;;19.11;47.39
28626;BME280;18905;42.668;23.364;2022-10-16T09:59:55;95959.50;;;18.69;49.71
28626;BME280;18905;42.668;23.364;2022-10-16T10:02:33;95948.91;;;19.38;57.67
28626;BME280;18905;42.668;23.364;2022-10-16T10:04:59;95952.34;;;20.47;54.60
28626;BME280;18905;42.668;23.364;2022-10-16T10:07:37;95951.19;;;21.06;47.49
28626;BME280;18905;42.668;23.364;2022-10-16T10:10:05;95936.09;;;21.38;44.48
28626;BME280;18905;42.668;23.364;2022-10-16T10:12:33;95941.28;;;21.65;44.36
28626;BME280;18905;42.668;23.364;2022-10-16T10:15:10;95933.19;;;22.21;45.76
28626;BME280;18905;42.668;23.364;2022-10-16T10:17:46;95940.00;;;22.30;41.57
28626;BME280;18905;42.668;23.364;2022-10-16T10:20:23;95935.03;;;21.87;40.16
28626;BME280;18905;42.668;23.364;2022-10-16T10:22:49;95934.91;;;21.80;40.18
28626;BME280;18905;42.668;23.364;2022-10-16T10:25:19;95927.38;;;21.55;41.66
28626;BME280;18905;42.668;23.364;2022-10-16T10:35:56;95931.09;;;21.43;40.42
28626;BME280;18905;42.668;23.364;2022-10-16T10:47:07;95918.19;;;20.45;42.58
28626;BME280;18905;42.668;23.364;2022-10-16T10:50:14;95919.41;;;19.63;44.78
28626;BME280;18905;42.668;23.364;2022-10-16T10:52:51;95911.00;;;20.21;44.72
28626;BME280;18905;42.668;23.364;2022-10-16T10:58:36;95906.94;;;19.81;43.75
28626;BME280;18905;42.668;23.364;2022-10-16T11:01:11;95906.22;;;20.18;42.03
28626;BME280;18905;42.668;23.364;2022-10-16T11:06:08;95907.97;;;20.26;39.82
28626;BME280;18905;42.668;23.364;2022-10-16T11:08:50;95901.94;;;20.74;38.23
28626;BME280;18905;42.668;23.364;2022-10-16T11:11:23;95895.31;;;21.17;38.26
28626;BME280;18905;42.668;23.364;2022-10-16T11:14:00;95897.56;;;21.34;36.93
28626;BME280;18905;42.668;23.364;2022-10-16T11:16:31;95883.19;;;21.18;37.82
28626;BME280;18905;42.668;23.364;2022-10-16T11:21:55;95895.81;;;20.08;41.59
28626;BME280;18905;42.668;23.364;2022-10-16T11:24:23;95891.19;;;19.78;42.26
28626;BME280;18905;42.668;23.364;2022-10-16T11:26:56;95871.31;;;20.34;42.09
28626;BME280;18905;42.668;23.364;2022-10-16T11:29:29;95877.69;;;20.38;42.56
28626;BME280;18905;42.668;23.364;2022-10-16T11:32:00;95885.81;;;19.50;44.21
28626;BME280;18905;42.668;23.364;2022-10-16T11:34:43;95858.31;;;19.16;46.07
28626;BME280;18905;42.668;23.364;2022-10-16T11:37:21;95883.94;;;19.08;46.17
28626;BME280;18905;42.668;23.364;2022-10-16T11:39:49;95881.72;;;18.82;46.53
28626;BME280;18905;42.668;23.364;2022-10-16T11:42:22;95873.28;;;19.49;44.78
28626;BME280;18905;42.668;23.364;2022-10-16T11:47:35;95892.50;;;19.68;42.56
28626;BME280;18905;42.668;23.364;2022-10-16T11:53:01;95886.53;;;20.13;42.24
28626;BME280;18905;42.668;23.364;2022-10-16T11:55:34;95875.13;;;20.30;42.39
28626;BME280;18905;42.668;23.364;2022-10-16T11:58:07;95886.09;;;19.30;44.88
28626;BME280;18905;42.668;23.364;2022-10-16T12:03:47;95884.28;;;19.06;45.35
28626;BME280;18905;42.668;23.364;2022-10-16T12:07:04;95888.38;;;19.74;45.11
28626;BME280;18905;42.668;23.364;2022-10-16T12:09:03;95877.59;;;20.00;44.13
28626;BME280;18905;42.668;23.364;2022-10-16T12:16:55;95875.06;;;19.92;44.88
28626;BME280;18905;42.668;23.364;2022-10-16T12:19:22;95850.91;;;20.13;43.48
28626;BME280;18905;42.668;23.364;2022-10-16T12:21:50;95851.63;;;19.94;43.19
28626;BME280;18905;42.668;23.364;2022-10-16T12:26:58;95883.19;;;20.04;43.79
28626;BME280;18905;42.668;23.364;2022-10-16T12:29:39;95878.69;;;19.96;42.63
28626;BME280;18905;42.668;23.364;2022-10-16T12:32:36;95878.59;;;20.08;42.90
28626;BME280;18905;42.668;23.364;2022-10-16T12:35:03;95853.25;;;20.14;42.20
28626;BME280;18905;42.668;23.364;2022-10-16T12:37:34;95884.16;;;20.68;41.82
28626;BME280;18905;42.668;23.364;2022-10-16T12:40:13;95878.94;;;20.82;41.62
28626;BME280;18905;42.668;23.364;2022-10-16T12:42:39;95875.84;;;20.84;41.80
28626;BME280;18905;42.668;23.364;2022-10-16T12:45:33;95880.25;;;20.50;42.21
28626;BME280;18905;42.668;23.364;2022-10-16T12:48:04;95877.44;;;19.93;43.01
28626;BME280;18905;42.668;23.364;2022-10-16T12:50:38;95884.84;;;19.43;43.55
28626;BME280;18905;42.668;23.364;2022-10-16T12:53:20;95893.53;;;19.29;44.43
28626;BME280;18905;42.668;23.364;2022-10-16T12:55:55;95889.97;;;18.70;45.18
28626;BME280;18905;42.668;23.364;2022-10-16T13:06:45;95890.66;;;20.22;42.49
28626;BME280;18905;42.668;23.364;2022-10-16T13:09:23;95889.88;;;20.22;42.54
28626;BME280;18905;42.668;23.364;2022-10-16T13:18:02;95886.09;;;20.30;42.35
28626;BME280;18905;42.668;23.364;2022-10-16T13:20:35;95890.75;;;19.76;42.63
28626;BME280;18905;42.668;23.364;2022-10-16T13:23:20;95894.56;;;19.71;43.15
28626;BME280;18905;42.668;23.364;2022-10-16T13:28:35;95888.94;;;20.91;56.52
28626;BME280;18905;42.668;23.364;2022-10-16T13:31:03;95886.53;;;20.89;47.11
28626;BME280;18905;42.668;23.364;2022-10-16T13:33:45;95883.75;;;21.53;47.99
28626;BME280;18905;42.668;23.364;2022-10-16T13:36:28;95878.84;;;21.66;48.89
28626;BME280;18905;42.668;23.364;2022-10-16T13:39:22;95890.22;;;22.13;42.60
28626;BME280;18905;42.668;23.364;2022-10-16T13:44:31;95885.72;;;22.57;44.58
28626;BME280;18905;42.668;23.364;2022-10-16T13:47:00;95899.13;;;22.58;44.38
28626;BME280;18905;42.668;23.364;2022-10-16T13:49:26;95882.13;;;20.84;41.87
28626;BME280;18905;42.668;23.364;2022-10-16T13:51:59;95879.13;;;21.57;48.18
28626;BME280;18905;42.668;23.364;2022-10-16T13:54:26;95882.06;;;22.20;45.19
28626;BME280;18905;42.668;23.364;2022-10-16T13:56:54;95858.03;;;21.65;42.40
28626;BME280;18905;42.668;23.364;2022-10-16T13:59:27;95899.28;;;21.42;41.25
28626;BME280;18905;42.668;23.364;2022-10-16T14:01:58;95895.50;;;21.73;46.04
28626;BME280;18905;42.668;23.364;2022-10-16T14:04:32;95903.78;;;20.89;42.88
28626;BME280;18905;42.668;23.364;2022-10-16T14:06:58;95888.13;;;21.32;42.78
28626;BME280;18905;42.668;23.364;2022-10-16T14:09:29;95893.34;;;21.40;44.92
28626;BME280;18905;42.668;23.364;2022-10-16T14:11:58;95894.63;;;20.44;41.14
28626;BME280;18905;42.668;23.364;2022-10-16T14:14:27;95905.25;;;19.76;42.60
28626;BME280;18905;42.668;23.364;2022-10-16T14:16:56;95891.69;;;19.33;42.57
28626;BME280;18905;42.668;23.364;2022-10-16T14:19:24;95906.88;;;19.03;43.22
28626;BME280;18905;42.668;23.364;2022-10-16T14:21:51;95905.94;;;19.11;42.83
28626;BME280;18905;42.668;23.364;2022-10-16T14:24:33;95909.41;;;18.53;43.54
28626;BME280;18905;42.668;23.364;2022-10-16T14:27:00;95915.94;;;18.49;43.16
28626;BME280;18905;42.668;23.364;2022-10-16T14:29:28;95920.44;;;18.17;44.68
28626;BME280;18905;42.668;23.364;2022-10-16T14:34:38;95916.84;;;17.89;44.91
28626;BME280;18905;42.668;23.364;2022-10-16T14:37:15;95916.53;;;17.67;44.93
28626;BME280;18905;42.668;23.364;2022-10-16T14:39:49;95923.69;;;17.71;45.35
28626;BME280;18905;42.668;23.364;2022-10-16T14:42:16;95925.28;;;17.84;45.36
28626;BME280;18905;42.668;23.364;2022-10-16T14:44:44;95909.84;;;17.40;46.27
28626;BME280;18905;42.668;23.364;2022-10-16T14:47:13;95924.56;;;17.27;46.38
28626;BME280;18905;42.668;23.364;2022-10-16T14:49:41;95897.69;;;17.05;46.60
28626;BME280;18905;42.668;23.364;2022-10-16T14:52:12;95930.03;;;17.27;47.02